Aranda — OIRY — position and weather

sailwx.info

Track history (hours):
 
Tides and Currents Weather Stations Pressure Air Temp Water Temp Dewpoint Dewpoint Depression Visibility Wind Speed Wind Dir Waves Ship Positions

Oceanographic research ship Aranda (Finland)

Detailed information on ship capabilities available from University of Delaware's Ocean Information Center and ARCUS's ALIAS (Arctic Logistics Information and Support) project.

Last reported at 2019-Apr-18 21:00 UTC. Time now 2019-Apr-18 21:04 UTC.
Position N 60°10' E 024°54'.

Length 66 m; draft 4.6 m.

Type: Neutral ship in war zone. MMSI: 230145000.

Date/timePositionNaut miles runAvg speedWind from/ knotsBaromVisibWave heightAir tempDewpointWater temp
2019-Apr-18 21:00N 60°10' E 024°54'0 0.0
2019-Apr-18 20:30N 60°10' E 024°54'0 0.0
2019-Apr-18 20:01N 60°10' E 024°54'0 0.0
2019-Apr-18 19:25N 60°10' E 024°54'0 0.0
2019-Apr-18 18:57N 60°10' E 024°54'0 0.0
2019-Apr-18 18:30N 60°10' E 024°54'0 0.0
2019-Apr-18 18:00N 60°10' E 024°54'0 0.0
2019-Apr-18 17:31N 60°10' E 024°54'0 0.0
2019-Apr-18 17:00N 60°10' E 024°54'0 0.0
2019-Apr-18 16:31N 60°10' E 024°54'0 0.0
2019-Apr-18 16:00N 60°10' E 024°54'0 0.0
2019-Apr-18 15:30N 60°10' E 024°54'0 0.0
2019-Apr-18 15:01N 60°10' E 024°54'0 0.0
2019-Apr-18 14:30N 60°10' E 024°54'0 0.0
2019-Apr-18 14:00N 60°10' E 024°54'0 0.0
2019-Apr-18 13:30N 60°10' E 024°54'0 0.0
2019-Apr-18 13:01N 60°10' E 024°54'0 0.0
2019-Apr-18 12:31N 60°10' E 024°54'0 0.0
2019-Apr-18 11:58N 60°10' E 024°54'0 0.0
2019-Apr-18 11:31N 60°10' E 024°54'0 0.0
2019-Apr-18 11:00N 60°10' E 024°54'0 0.0
2019-Apr-18 10:30N 60°10' E 024°54'0 0.0
2019-Apr-18 10:00N 60°10' E 024°54'0 0.0
2019-Apr-18 09:30N 60°10' E 024°54'0 0.0
2019-Apr-18 09:00N 60°10' E 024°54'0 0.0
2019-Apr-18 08:30N 60°10' E 024°54'0 0.0
2019-Apr-18 08:00N 60°10' E 024°54'0 0.0
2019-Apr-18 07:30N 60°10' E 024°54'0 0.0
2019-Apr-18 07:00N 60°10' E 024°54'2 4.4
2019-Apr-18 06:30N 60°08' E 024°58'1 2.2
2019-Apr-18 06:00N 60°07' E 024°58'0 0.0
2019-Apr-18 05:30N 60°07' E 024°58'3 5.2
2019-Apr-18 05:00N 60°05' E 024°58'5 9.5
2019-Apr-18 04:30N 60°00' E 024°56'5 9.6
2019-Apr-18 04:00N 59°56' E 024°53'5 9.4
2019-Apr-18 03:30N 59°51' E 024°51'0 0.7
2019-Apr-18 03:00N 59°51' E 024°50'2 4.6
2019-Apr-18 02:30N 59°49' E 024°48'3 5.5
2019-Apr-18 02:00N 59°47' E 024°44'3 6.9
2019-Apr-18 01:30N 59°46' E 024°37'4 7.1
2019-Apr-18 01:00N 59°44' E 024°31'4 7.1
2019-Apr-18 00:30N 59°43' E 024°24'4 7.4
2019-Apr-18 00:00N 59°42' E 024°17'4 7.4
2019-Apr-17 23:30N 59°41' E 024°11'4 7.3
2019-Apr-17 23:00N 59°39' E 024°04'3 5.3
2019-Apr-17 22:30N 59°38' E 023°59'4 7.1
2019-Apr-17 22:00N 59°37' E 023°52'4 7.0
2019-Apr-17 21:30N 59°36' E 023°46'4 7.4
2019-Apr-17 21:00N 59°35' E 023°39'4 7.6
2019-Apr-17 20:30N 59°33' E 023°32'1 2.3
2019-Apr-17 20:01N 59°33' E 023°30'611.9
2019-Apr-17 19:30N 59°31' E 023°19'612.4
2019-Apr-17 19:00N 59°29' E 023°07'612.3
2019-Apr-17 18:30N 59°28' E 022°55'612.5
2019-Apr-17 18:00N 59°26' E 022°43'1512.7
2019-Apr-17 16:48N 59°23' E 022°14'412.7
2019-Apr-17 16:30N 59°23' E 022°07'612.6
2019-Apr-17 16:00N 59°23' E 021°54'612.6
2019-Apr-17 15:30N 59°23' E 021°42'612.5
2019-Apr-17 15:00N 59°23' E 021°29'2 2.9
2019-Apr-17 14:29N 59°23' E 021°26'0 0.0
2019-Apr-17 14:00N 59°23' E 021°26'0 0.0
2019-Apr-17 13:30N 59°23' E 021°26'0 0.0
2019-Apr-17 13:00N 59°23' E 021°26'0 0.0
2019-Apr-17 12:30N 59°23' E 021°26'0 0.0
2019-Apr-17 12:00N 59°23' E 021°26'0 0.0
2019-Apr-17 11:30N 59°23' E 021°26'0 0.0
2019-Apr-17 11:00N 59°23' E 021°26'0 0.0
2019-Apr-17 10:30N 59°23' E 021°26'0 0.0
2019-Apr-17 10:00N 59°23' E 021°26'0 0.0
2019-Apr-17 09:30N 59°23' E 021°26'0 0.0
2019-Apr-17 09:00N 59°23' E 021°26'0 0.0
2019-Apr-17 08:30N 59°23' E 021°26'0 0.0
2019-Apr-17 08:00N 59°23' E 021°26'0 0.0
2019-Apr-17 07:30N 59°23' E 021°26'0 0.0
2019-Apr-17 07:00N 59°23' E 021°26'0 0.0
2019-Apr-17 06:30N 59°23' E 021°26'0 0.0
2019-Apr-17 06:00N 59°23' E 021°26'0 0.0
2019-Apr-17 05:30N 59°23' E 021°26'0 0.0
2019-Apr-17 05:00N 59°23' E 021°26'0 0.0
2019-Apr-17 04:30N 59°23' E 021°26'0 0.0
2019-Apr-17 04:00N 59°23' E 021°26'0 0.0
2019-Apr-17 03:29N 59°23' E 021°26'4 8.2
2019-Apr-17 03:00N 59°27' E 021°26'5 9.4
2019-Apr-17 02:30N 59°31' E 021°25'5 9.5
2019-Apr-17 02:00N 59°36' E 021°24'3 5.7
2019-Apr-17 01:30N 59°39' E 021°23'3 5.3
2019-Apr-17 01:00N 59°42' E 021°23'4 7.4
2019-Apr-17 00:31N 59°45' E 021°22'0 0.2
2019-Apr-17 00:00N 59°45' E 021°22'0 0.0
2019-Apr-16 23:30N 59°45' E 021°22'0 0.0
2019-Apr-16 23:00N 59°45' E 021°22'0 0.0
2019-Apr-16 22:31N 59°45' E 021°22'0 0.0
2019-Apr-16 22:00N 59°45' E 021°22'0 0.0
2019-Apr-16 21:30N 59°45' E 021°22'0 0.0
2019-Apr-16 21:00N 59°45' E 021°22'0 0.0
2019-Apr-16 20:30N 59°45' E 021°22'0 0.0
2019-Apr-16 20:00N 59°45' E 021°22'0 0.0
2019-Apr-16 19:30N 59°45' E 021°22'0 0.0
2019-Apr-16 19:00N 59°45' E 021°22'0 0.0
2019-Apr-16 18:30N 59°45' E 021°22'0 0.0
2019-Apr-16 18:00N 59°45' E 021°22'0 0.0
2019-Apr-16 17:31N 59°45' E 021°22'0 0.2
2019-Apr-16 17:00N 59°45' E 021°22'0 0.0
2019-Apr-16 16:31N 59°45' E 021°22'0 0.1
2019-Apr-16 16:00N 59°45' E 021°22'0 0.0
2019-Apr-16 15:30N 59°45' E 021°22'0 0.0
2019-Apr-16 15:01N 59°45' E 021°22'0 0.0
2019-Apr-16 14:30N 59°45' E 021°22'0 0.2
2019-Apr-16 14:00N 59°45' E 021°22'0 0.0
2019-Apr-16 13:30N 59°45' E 021°22'0 0.0
2019-Apr-16 13:00N 59°45' E 021°22'0 0.0
2019-Apr-16 12:30N 59°45' E 021°22'0 0.0
2019-Apr-16 12:00N 59°45' E 021°22'0 0.0
2019-Apr-16 11:30N 59°45' E 021°22'0 0.0
2019-Apr-16 11:00N 59°45' E 021°22'0 0.0
2019-Apr-16 10:30N 59°45' E 021°22'0 0.0
2019-Apr-16 10:00N 59°45' E 021°22'0 0.0
2019-Apr-16 09:30N 59°45' E 021°22'0 0.0
2019-Apr-16 09:00N 59°45' E 021°22'0 0.0
2019-Apr-16 08:30N 59°45' E 021°22'0 0.0
2019-Apr-16 08:00N 59°45' E 021°22'0 0.0
2019-Apr-16 07:30N 59°45' E 021°22'0 0.0
2019-Apr-16 07:00N 59°45' E 021°22'0 0.2
2019-Apr-16 06:30N 59°45' E 021°22'0 0.0
2019-Apr-16 06:00N 59°45' E 021°22'0 0.0
2019-Apr-16 05:30N 59°45' E 021°22'0 0.0
2019-Apr-16 05:00N 59°45' E 021°22'2 4.4
2019-Apr-16 04:31N 59°43' E 021°23'4 7.9
2019-Apr-16 04:00N 59°39' E 021°25'4 8.0
2019-Apr-16 03:30N 59°38' E 021°32'4 8.1
2019-Apr-16 03:00N 59°36' E 021°39'4 8.1
2019-Apr-16 02:30N 59°34' E 021°47'4 7.9
2019-Apr-16 02:00N 59°33' E 021°54'4 8.2
2019-Apr-16 01:30N 59°33' E 022°03'4 8.2
2019-Apr-16 00:58N 59°33' E 022°11'4 8.2
2019-Apr-16 00:30N 59°33' E 022°19'4 8.4
2019-Apr-16 00:00N 59°33' E 022°27'4 8.7
2019-Apr-15 23:30N 59°33' E 022°35'4 8.7
2019-Apr-15 23:00N 59°33' E 022°44'4 8.7
2019-Apr-15 22:30N 59°33' E 022°53'4 8.6
2019-Apr-15 22:00N 59°33' E 023°01'4 8.5
2019-Apr-15 21:30N 59°33' E 023°09'4 8.4
2019-Apr-15 21:00N 59°33' E 023°18'4 8.5
2019-Apr-15 20:30N 59°33' E 023°26'2 4.1
2019-Apr-15 20:00N 59°33' E 023°30'0 0.1
2019-Apr-15 19:30N 59°33' E 023°30'0 0.1
2019-Apr-15 19:00N 59°33' E 023°30'0 0.0
2019-Apr-15 18:30N 59°33' E 023°30'0 0.0
2019-Apr-15 18:00N 59°33' E 023°30'1 2.6
2019-Apr-15 17:30N 59°32' E 023°29'0 0.2
2019-Apr-15 17:00N 59°32' E 023°29'0 0.2
2019-Apr-15 16:30N 59°32' E 023°29'0 0.0
2019-Apr-15 16:00N 59°32' E 023°29'0 0.0
2019-Apr-15 15:30N 59°32' E 023°29'5 9.0
2019-Apr-15 15:00N 59°34' E 023°37'612.7
2019-Apr-15 14:30N 59°38' E 023°47'612.7
2019-Apr-15 14:00N 59°41' E 023°58'612.5
2019-Apr-15 13:30N 59°44' E 024°09'612.5
2019-Apr-15 13:00N 59°47' E 024°19'612.6
2019-Apr-15 12:30N 59°51' E 024°30'612.5
2019-Apr-15 12:00N 59°54' E 024°40'612.6
2019-Apr-15 11:30N 59°58' E 024°50'612.3
2019-Apr-15 11:00N 60°03' E 024°57'1 2.4
2019-Apr-15 10:30N 60°04' E 024°59'0 0.0
2019-Apr-15 10:00N 60°04' E 024°59'3 6.7
2019-Apr-15 09:30N 60°06' E 024°54'3 6.3
2019-Apr-15 09:00N 60°10' E 024°54'0 0.0
2019-Apr-15 08:30N 60°10' E 024°54'0 0.0
2019-Apr-15 08:00N 60°10' E 024°54'0 0.0
2019-Apr-15 07:30N 60°10' E 024°54'0 0.0
2019-Apr-15 07:00N 60°10' E 024°54'0 0.0
2019-Apr-15 06:30N 60°10' E 024°54'0 0.0
2019-Apr-15 06:00N 60°10' E 024°54'0 0.0
2019-Apr-15 05:30N 60°10' E 024°54'0 0.0
2019-Apr-15 05:00N 60°10' E 024°54'0 0.0
2019-Apr-15 04:30N 60°10' E 024°54'0 0.0
2019-Apr-15 03:57N 60°10' E 024°54'0 0.0
2019-Apr-15 03:27N 60°10' E 024°54'0 0.0
2019-Apr-15 03:00N 60°10' E 024°54'0 0.0
2019-Apr-15 02:30N 60°10' E 024°54'0 0.0
2019-Apr-15 01:57N 60°10' E 024°54'0 0.0
2019-Apr-15 01:30N 60°10' E 024°54'0 0.0
2019-Apr-15 00:57N 60°10' E 024°54'0 0.0
2019-Apr-15 00:30N 60°10' E 024°54'0 0.0
2019-Apr-15 00:00N 60°10' E 024°54'0 0.0
2019-Apr-14 23:30N 60°10' E 024°54'0 0.0
2019-Apr-14 23:00N 60°10' E 024°54'0 0.0
2019-Apr-14 22:30N 60°10' E 024°54'0 0.0
2019-Apr-14 22:00N 60°10' E 024°54'0 0.0
2019-Apr-14 21:30N 60°10' E 024°54'0 0.0
2019-Apr-14 21:00N 60°10' E 024°54'0 0.0
2019-Apr-14 20:30N 60°10' E 024°54'0 0.0
2019-Apr-14 20:00N 60°10' E 024°54'0 0.0
2019-Apr-14 19:30N 60°10' E 024°54'0 0.0
2019-Apr-14 19:00N 60°10' E 024°54'0 0.0
2019-Apr-14 18:30N 60°10' E 024°54'0 0.0
2019-Apr-14 18:00N 60°10' E 024°54'0 0.0
2019-Apr-14 17:30N 60°10' E 024°54'0 0.0
2019-Apr-14 17:00N 60°10' E 024°54'0 0.0
2019-Apr-14 16:30N 60°10' E 024°54'0 0.0
2019-Apr-14 16:00N 60°10' E 024°54'0 0.0
2019-Apr-14 15:30N 60°10' E 024°54'0 0.0
2019-Apr-14 15:00N 60°10' E 024°54'0 0.0
2019-Apr-14 14:30N 60°10' E 024°54'0 0.0
2019-Apr-14 14:00N 60°10' E 024°54'0 0.0
2019-Apr-14 13:30N 60°10' E 024°54'0 0.0
2019-Apr-14 13:00N 60°10' E 024°54'0 0.0
2019-Apr-14 12:30N 60°10' E 024°54'0 0.0
2019-Apr-14 12:00N 60°10' E 024°54'0 0.0
2019-Apr-14 11:30N 60°10' E 024°54'0 0.0
2019-Apr-14 11:00N 60°10' E 024°54'0 0.0
2019-Apr-14 10:30N 60°10' E 024°54'0 0.0
2019-Apr-14 10:00N 60°10' E 024°54'0 0.0
2019-Apr-14 09:30N 60°10' E 024°54'0 0.0
2019-Apr-14 09:00N 60°10' E 024°54'0 0.0
2019-Apr-14 08:30N 60°10' E 024°54'0 0.0
2019-Apr-14 08:00N 60°10' E 024°54'0 0.0
2019-Apr-14 07:30N 60°10' E 024°54'0 0.0
2019-Apr-14 06:57N 60°10' E 024°54'0 0.0
2019-Apr-14 06:30N 60°10' E 024°54'0 0.0
2019-Apr-14 06:00N 60°10' E 024°54'0 0.0
2019-Apr-14 05:30N 60°10' E 024°54'0 0.0
2019-Apr-14 04:59N 60°10' E 024°54'0 0.0
2019-Apr-14 04:30N 60°10' E 024°54'0 0.0
2019-Apr-14 04:00N 60°10' E 024°54'0 0.0
2019-Apr-14 03:30N 60°10' E 024°54'0 0.0
2019-Apr-14 03:00N 60°10' E 024°54'0 0.0
2019-Apr-14 02:29N 60°10' E 024°54'0 0.0
2019-Apr-14 02:00N 60°10' E 024°54'0 0.0
2019-Apr-14 01:30N 60°10' E 024°54'0 0.0
2019-Apr-14 01:00N 60°10' E 024°54'0 0.0
2019-Apr-14 00:30N 60°10' E 024°54'0 0.0
2019-Apr-14 00:00N 60°10' E 024°54'0 0.0
2019-Apr-13 23:30N 60°10' E 024°54'0 0.0
2019-Apr-13 23:00N 60°10' E 024°54'0 0.0
2019-Apr-13 22:30N 60°10' E 024°54'0 0.0
2019-Apr-13 22:00N 60°10' E 024°54'0 0.0
2019-Apr-13 21:29N 60°10' E 024°54'0 0.0
2019-Apr-13 21:00N 60°10' E 024°54'0 0.0
2019-Apr-13 20:29N 60°10' E 024°54'0 0.0
2019-Apr-13 20:00N 60°10' E 024°54'0 0.0
2019-Apr-13 19:29N 60°10' E 024°54'0 0.0
2019-Apr-13 19:00N 60°10' E 024°54'0 0.0
2019-Apr-13 18:29N 60°10' E 024°54'0 0.0
2019-Apr-13 17:59N 60°10' E 024°54'0 0.0
2019-Apr-13 17:29N 60°10' E 024°54'0 0.0
2019-Apr-13 17:00N 60°10' E 024°54'0 0.0
2019-Apr-13 16:29N 60°10' E 024°54'0 0.0
2019-Apr-13 15:59N 60°10' E 024°54'0 0.0
2019-Apr-13 15:29N 60°10' E 024°54'0 0.0
2019-Apr-13 14:59N 60°10' E 024°54'0 0.0
2019-Apr-13 14:29N 60°10' E 024°54'0 0.0
2019-Apr-13 13:59N 60°10' E 024°54'0 0.0
2019-Apr-13 13:29N 60°10' E 024°54'0 0.0
2019-Apr-13 12:59N 60°10' E 024°54'0 0.0
2019-Apr-13 12:29N 60°10' E 024°54'0 0.0
2019-Apr-13 11:59N 60°10' E 024°54'0 0.0
2019-Apr-13 11:29N 60°10' E 024°54'0 0.0
2019-Apr-13 10:59N 60°10' E 024°54'0 0.0
2019-Apr-13 10:29N 60°10' E 024°54'0 0.0
2019-Apr-13 09:59N 60°10' E 024°54'0 0.0
2019-Apr-13 09:29N 60°10' E 024°54'0 0.0
2019-Apr-13 08:59N 60°10' E 024°54'0 0.0
2019-Apr-13 08:29N 60°10' E 024°54'0 0.0
2019-Apr-13 07:59N 60°10' E 024°54'0 0.0
2019-Apr-13 07:30N 60°10' E 024°54'0 0.0
2019-Apr-13 06:59N 60°10' E 024°54'0 0.0
2019-Apr-13 06:29N 60°10' E 024°54'0 0.0
2019-Apr-13 05:59N 60°10' E 024°54'0 0.0
2019-Apr-13 05:29N 60°10' E 024°54'0 0.0
2019-Apr-13 04:59N 60°10' E 024°54'0 0.0
2019-Apr-13 04:29N 60°10' E 024°54'0 0.0
2019-Apr-13 03:59N 60°10' E 024°54'0 0.0
2019-Apr-13 03:29N 60°10' E 024°54'0 0.0
2019-Apr-13 02:59N 60°10' E 024°54'0 0.0
2019-Apr-13 02:29N 60°10' E 024°54'0 0.0
2019-Apr-13 01:59N 60°10' E 024°54'0 0.0
2019-Apr-13 01:29N 60°10' E 024°54'0 0.0
2019-Apr-13 00:59N 60°10' E 024°54'0 0.0
2019-Apr-13 00:29N 60°10' E 024°54'0 0.0
2019-Apr-12 23:59N 60°10' E 024°54'0 0.0
2019-Apr-12 23:29N 60°10' E 024°54'0 0.0
2019-Apr-12 22:59N 60°10' E 024°54'0 0.0
2019-Apr-12 22:29N 60°10' E 024°54'0 0.0
2019-Apr-12 21:59N 60°10' E 024°54'0 0.0
2019-Apr-12 21:29N 60°10' E 024°54'0 0.0
2019-Apr-12 20:59N 60°10' E 024°54'0 0.0
2019-Apr-12 20:29N 60°10' E 024°54'0 0.0
2019-Apr-12 19:59N 60°10' E 024°54'0 0.0
2019-Apr-12 19:29N 60°10' E 024°54'0 0.0
2019-Apr-12 18:59N 60°10' E 024°54'0 0.0
2019-Apr-12 18:29N 60°10' E 024°54'0 0.0
2019-Apr-12 17:59N 60°10' E 024°54'0 0.0
2019-Apr-12 17:29N 60°10' E 024°54'0 0.0
2019-Apr-12 16:59N 60°10' E 024°54'0 0.0
2019-Apr-12 16:29N 60°10' E 024°54'0 0.0
2019-Apr-12 15:59N 60°10' E 024°54'0 0.0
2019-Apr-12 15:29N 60°10' E 024°54'0 0.0
2019-Apr-12 14:59N 60°10' E 024°54'0 0.0
2019-Apr-12 14:29N 60°10' E 024°54'0 0.0
2019-Apr-12 13:59N 60°10' E 024°54'0 0.0
2019-Apr-12 13:29N 60°10' E 024°54'0 0.0
2019-Apr-12 12:59N 60°10' E 024°54'0 0.0
2019-Apr-12 12:29N 60°10' E 024°54'0 0.0
2019-Apr-12 11:59N 60°10' E 024°54'0 0.0
2019-Apr-12 11:29N 60°10' E 024°54'0 0.0
2019-Apr-12 10:59N 60°10' E 024°54'0 0.0
2019-Apr-12 10:29N 60°10' E 024°54'0 0.0
2019-Apr-12 09:59N 60°10' E 024°54'0 0.0
2019-Apr-12 09:29N 60°10' E 024°54'0 0.0
2019-Apr-12 08:59N 60°10' E 024°54'0 0.0
2019-Apr-12 08:29N 60°10' E 024°54'0 0.0
2019-Apr-12 07:59N 60°10' E 024°54'0 0.0
2019-Apr-12 07:29N 60°10' E 024°54'0 0.0
2019-Apr-12 06:59N 60°10' E 024°54'0 0.0
2019-Apr-12 06:26N 60°10' E 024°54'0 0.0
2019-Apr-12 05:59N 60°10' E 024°54'0 0.0
2019-Apr-12 05:30N 60°10' E 024°54'0 0.0
2019-Apr-12 05:00N 60°10' E 024°54'0 0.0
2019-Apr-12 04:30N 60°10' E 024°54'0 0.0
2019-Apr-12 04:00N 60°10' E 024°54'0 0.0
2019-Apr-12 03:30N 60°10' E 024°54'0 0.0
2019-Apr-12 03:00N 60°10' E 024°54'0 0.1
2019-Apr-12 02:30N 60°10' E 024°54'510.9
2019-Apr-12 02:00N 60°04' E 024°53'510.8
2019-Apr-12 01:30N 59°59' E 024°53'612.4
2019-Apr-12 01:00N 59°55' E 024°42'612.3
2019-Apr-12 00:30N 59°53' E 024°31'612.4
2019-Apr-12 00:00N 59°50' E 024°20'1112.2
2019-Apr-11 23:04N 59°46' E 023°59'112.0
2019-Apr-11 22:59N 59°46' E 023°57'612.0
2019-Apr-11 22:30N 59°44' E 023°46'611.8
2019-Apr-11 22:00N 59°42' E 023°35'611.9
2019-Apr-11 21:30N 59°41' E 023°23'611.9
2019-Apr-11 21:00N 59°39' E 023°12'611.9
2019-Apr-11 20:30N 59°38' E 023°01'611.9
2019-Apr-11 20:00N 59°36' E 022°49'611.8
2019-Apr-11 19:30N 59°35' E 022°38'611.9
2019-Apr-11 19:01N 59°33' E 022°27'612.1
2019-Apr-11 18:31N 59°30' E 022°17'2512.3
2019-Apr-11 16:27N 59°17' E 021°35'812.3
2019-Apr-11 15:51N 59°13' E 021°22'219 8.5
2019-Apr-10 14:05N 56°26' E 016°56'112.0
2019-Apr-10 14:00N 56°25' E 016°55'612.1
2019-Apr-10 13:30N 56°20' E 016°50'612.1
2019-Apr-10 13:00N 56°15' E 016°44'611.3
2019-Apr-10 12:30N 56°10' E 016°39'1 1.3
2019-Apr-10 12:00N 56°10' E 016°38'612.1
2019-Apr-10 11:30N 56°06' E 016°29'5 9.7
2019-Apr-10 11:00N 56°08' E 016°20'612.6
2019-Apr-10 10:30N 56°14' E 016°17'612.6
2019-Apr-10 10:00N 56°20' E 016°14'3 5.5
2019-Apr-10 09:30N 56°22' E 016°12'0 0.0
2019-Apr-10 09:00N 56°22' E 016°12'0 0.0
2019-Apr-10 08:30N 56°22' E 016°12'2 4.9
2019-Apr-10 08:00N 56°20' E 016°11'612.2
2019-Apr-10 07:30N 56°14' E 016°08'612.0
2019-Apr-10 07:00N 56°09' E 016°03'612.2
2019-Apr-10 06:30N 56°04' E 015°57'612.4
2019-Apr-10 06:00N 55°58' E 015°51'611.9
2019-Apr-10 05:30N 55°54' E 015°43'612.3
2019-Apr-10 05:00N 55°51' E 015°34'612.4
2019-Apr-10 04:30N 55°48' E 015°24'612.3
2019-Apr-10 04:00N 55°45' E 015°15'612.5
2019-Apr-10 03:30N 55°42' E 015°05'612.6
2019-Apr-10 03:00N 55°38' E 014°56'2 4.8
2019-Apr-10 02:30N 55°37' E 014°52'3 4.4
2019-Apr-10 01:55N 55°35' E 014°49'512.6
2019-Apr-10 01:29N 55°32' E 014°41'5010.7
2019-Apr-09 20:47N 55°17' E 013°17'412.4
2019-Apr-09 20:29N 55°16' E 013°10'612.5
2019-Apr-09 19:58N 55°16' E 012°59'611.8
2019-Apr-09 19:26N 55°16' E 012°48'512.1
2019-Apr-09 19:00N 55°18' E 012°40'611.4
2019-Apr-09 18:30N 55°24' E 012°40'612.2
2019-Apr-09 18:00N 55°30' E 012°41'611.5
2019-Apr-09 17:30N 55°35' E 012°42'611.4
2019-Apr-09 17:00N 55°41' E 012°41'612.0
2019-Apr-09 16:30N 55°47' E 012°41'612.0
2019-Apr-09 16:00N 55°53' E 012°39'611.8
2019-Apr-09 15:31N 55°59' E 012°40'611.1
2019-Apr-09 15:00N 56°04' E 012°37'510.4
2019-Apr-09 14:29N 56°08' E 012°30'65 9.6
2019-Apr-09 07:45N 57°09' E 011°54'312.2
2019-Apr-09 07:30N 57°12' E 011°52'612.1
2019-Apr-09 07:00N 57°18' E 011°49'612.1
2019-Apr-09 06:30N 57°24' E 011°46'612.3
2019-Apr-09 06:00N 57°30' E 011°42'612.1
2019-Apr-09 05:31N 57°36' E 011°40'0 0.5
2019-Apr-09 04:59N 57°36' E 011°40'2 4.3
2019-Apr-09 04:30N 57°37' E 011°37'612.0
2019-Apr-09 04:00N 57°41' E 011°30'612.5
2019-Apr-09 03:30N 57°47' E 011°24'612.4
2019-Apr-09 03:00N 57°52' E 011°18'0 0.3
2019-Apr-09 02:30N 57°52' E 011°18'1 1.8
2019-Apr-09 02:01N 57°53' E 011°17'612.2
2019-Apr-09 01:31N 57°59' E 011°14'612.0
2019-Apr-09 01:01N 58°04' E 011°11'611.6
2019-Apr-09 00:30N 58°10' E 011°07'611.7
2019-Apr-09 00:00N 58°16' E 011°04'510.0
2019-Apr-08 23:31N 58°20' E 011°02'0 0.0
2019-Apr-08 23:01N 58°20' E 011°02'2 4.1
2019-Apr-08 22:30N 58°19' E 010°58'1 2.0
2019-Apr-08 22:00N 58°19' E 010°56'3 6.4
2019-Apr-08 21:30N 58°18' E 010°51'  
Track history (hours):
 
Tides and Currents Weather Stations Pressure Air Temp Water Temp Dewpoint Dewpoint Depression Visibility Wind Speed Wind Dir Waves Ship Positions

Oceanographic research ship Aranda (Finland)

Detailed information on ship capabilities available from University of Delaware's Ocean Information Center and ARCUS's ALIAS (Arctic Logistics Information and Support) project.

Last reported at 2019-Apr-18 21:00 UTC. Time now 2019-Apr-18 21:04 UTC.
Position N 60°10' E 024°54'.

Length 66 m; draft 4.6 m.

Type: Neutral ship in war zone. MMSI: 230145000.

Date/timePositionNaut miles runAvg speedWind from/ knotsBaromVisibWave heightAir tempDewpointWater temp
2019-Apr-18 21:00N 60°10' E 024°54'0 0.0
2019-Apr-18 20:30N 60°10' E 024°54'0 0.0
2019-Apr-18 20:01N 60°10' E 024°54'0 0.0
2019-Apr-18 19:25N 60°10' E 024°54'0 0.0
2019-Apr-18 18:57N 60°10' E 024°54'0 0.0
2019-Apr-18 18:30N 60°10' E 024°54'0 0.0
2019-Apr-18 18:00N 60°10' E 024°54'0 0.0
2019-Apr-18 17:31N 60°10' E 024°54'0 0.0
2019-Apr-18 17:00N 60°10' E 024°54'0 0.0
2019-Apr-18 16:31N 60°10' E 024°54'0 0.0
2019-Apr-18 16:00N 60°10' E 024°54'0 0.0
2019-Apr-18 15:30N 60°10' E 024°54'0 0.0
2019-Apr-18 15:01N 60°10' E 024°54'0 0.0
2019-Apr-18 14:30N 60°10' E 024°54'0 0.0
2019-Apr-18 14:00N 60°10' E 024°54'0 0.0
2019-Apr-18 13:30N 60°10' E 024°54'0 0.0
2019-Apr-18 13:01N 60°10' E 024°54'0 0.0
2019-Apr-18 12:31N 60°10' E 024°54'0 0.0
2019-Apr-18 11:58N 60°10' E 024°54'0 0.0
2019-Apr-18 11:31N 60°10' E 024°54'0 0.0
2019-Apr-18 11:00N 60°10' E 024°54'0 0.0
2019-Apr-18 10:30N 60°10' E 024°54'0 0.0
2019-Apr-18 10:00N 60°10' E 024°54'0 0.0
2019-Apr-18 09:30N 60°10' E 024°54'0 0.0
2019-Apr-18 09:00N 60°10' E 024°54'0 0.0
2019-Apr-18 08:30N 60°10' E 024°54'0 0.0
2019-Apr-18 08:00N 60°10' E 024°54'0 0.0
2019-Apr-18 07:30N 60°10' E 024°54'0 0.0
2019-Apr-18 07:00N 60°10' E 024°54'2 4.4
2019-Apr-18 06:30N 60°08' E 024°58'1 2.2
2019-Apr-18 06:00N 60°07' E 024°58'0 0.0
2019-Apr-18 05:30N 60°07' E 024°58'3 5.2
2019-Apr-18 05:00N 60°05' E 024°58'5 9.5
2019-Apr-18 04:30N 60°00' E 024°56'5 9.6
2019-Apr-18 04:00N 59°56' E 024°53'5 9.4
2019-Apr-18 03:30N 59°51' E 024°51'0 0.7
2019-Apr-18 03:00N 59°51' E 024°50'2 4.6
2019-Apr-18 02:30N 59°49' E 024°48'3 5.5
2019-Apr-18 02:00N 59°47' E 024°44'3 6.9
2019-Apr-18 01:30N 59°46' E 024°37'4 7.1
2019-Apr-18 01:00N 59°44' E 024°31'4 7.1
2019-Apr-18 00:30N 59°43' E 024°24'4 7.4
2019-Apr-18 00:00N 59°42' E 024°17'4 7.4
2019-Apr-17 23:30N 59°41' E 024°11'4 7.3
2019-Apr-17 23:00N 59°39' E 024°04'3 5.3
2019-Apr-17 22:30N 59°38' E 023°59'4 7.1
2019-Apr-17 22:00N 59°37' E 023°52'4 7.0
2019-Apr-17 21:30N 59°36' E 023°46'4 7.4
2019-Apr-17 21:00N 59°35' E 023°39'4 7.6
2019-Apr-17 20:30N 59°33' E 023°32'1 2.3
2019-Apr-17 20:01N 59°33' E 023°30'611.9
2019-Apr-17 19:30N 59°31' E 023°19'612.4
2019-Apr-17 19:00N 59°29' E 023°07'612.3
2019-Apr-17 18:30N 59°28' E 022°55'612.5
2019-Apr-17 18:00N 59°26' E 022°43'1512.7
2019-Apr-17 16:48N 59°23' E 022°14'412.7
2019-Apr-17 16:30N 59°23' E 022°07'612.6
2019-Apr-17 16:00N 59°23' E 021°54'612.6
2019-Apr-17 15:30N 59°23' E 021°42'612.5
2019-Apr-17 15:00N 59°23' E 021°29'2 2.9
2019-Apr-17 14:29N 59°23' E 021°26'0 0.0
2019-Apr-17 14:00N 59°23' E 021°26'0 0.0
2019-Apr-17 13:30N 59°23' E 021°26'0 0.0
2019-Apr-17 13:00N 59°23' E 021°26'0 0.0
2019-Apr-17 12:30N 59°23' E 021°26'0 0.0
2019-Apr-17 12:00N 59°23' E 021°26'0 0.0
2019-Apr-17 11:30N 59°23' E 021°26'0 0.0
2019-Apr-17 11:00N 59°23' E 021°26'0 0.0
2019-Apr-17 10:30N 59°23' E 021°26'0 0.0
2019-Apr-17 10:00N 59°23' E 021°26'0 0.0
2019-Apr-17 09:30N 59°23' E 021°26'0 0.0
2019-Apr-17 09:00N 59°23' E 021°26'0 0.0
2019-Apr-17 08:30N 59°23' E 021°26'0 0.0
2019-Apr-17 08:00N 59°23' E 021°26'0 0.0
2019-Apr-17 07:30N 59°23' E 021°26'0 0.0
2019-Apr-17 07:00N 59°23' E 021°26'0 0.0
2019-Apr-17 06:30N 59°23' E 021°26'0 0.0
2019-Apr-17 06:00N 59°23' E 021°26'0 0.0
2019-Apr-17 05:30N 59°23' E 021°26'0 0.0
2019-Apr-17 05:00N 59°23' E 021°26'0 0.0
2019-Apr-17 04:30N 59°23' E 021°26'0 0.0
2019-Apr-17 04:00N 59°23' E 021°26'0 0.0
2019-Apr-17 03:29N 59°23' E 021°26'4 8.2
2019-Apr-17 03:00N 59°27' E 021°26'5 9.4
2019-Apr-17 02:30N 59°31' E 021°25'5 9.5
2019-Apr-17 02:00N 59°36' E 021°24'3 5.7
2019-Apr-17 01:30N 59°39' E 021°23'3 5.3
2019-Apr-17 01:00N 59°42' E 021°23'4 7.4
2019-Apr-17 00:31N 59°45' E 021°22'0 0.2
2019-Apr-17 00:00N 59°45' E 021°22'0 0.0
2019-Apr-16 23:30N 59°45' E 021°22'0 0.0
2019-Apr-16 23:00N 59°45' E 021°22'0 0.0
2019-Apr-16 22:31N 59°45' E 021°22'0 0.0
2019-Apr-16 22:00N 59°45' E 021°22'0 0.0
2019-Apr-16 21:30N 59°45' E 021°22'0 0.0
2019-Apr-16 21:00N 59°45' E 021°22'0 0.0
2019-Apr-16 20:30N 59°45' E 021°22'0 0.0
2019-Apr-16 20:00N 59°45' E 021°22'0 0.0
2019-Apr-16 19:30N 59°45' E 021°22'0 0.0
2019-Apr-16 19:00N 59°45' E 021°22'0 0.0
2019-Apr-16 18:30N 59°45' E 021°22'0 0.0
2019-Apr-16 18:00N 59°45' E 021°22'0 0.0
2019-Apr-16 17:31N 59°45' E 021°22'0 0.2
2019-Apr-16 17:00N 59°45' E 021°22'0 0.0
2019-Apr-16 16:31N 59°45' E 021°22'0 0.1
2019-Apr-16 16:00N 59°45' E 021°22'0 0.0
2019-Apr-16 15:30N 59°45' E 021°22'0 0.0
2019-Apr-16 15:01N 59°45' E 021°22'0 0.0
2019-Apr-16 14:30N 59°45' E 021°22'0 0.2
2019-Apr-16 14:00N 59°45' E 021°22'0 0.0
2019-Apr-16 13:30N 59°45' E 021°22'0 0.0
2019-Apr-16 13:00N 59°45' E 021°22'0 0.0
2019-Apr-16 12:30N 59°45' E 021°22'0 0.0
2019-Apr-16 12:00N 59°45' E 021°22'0 0.0
2019-Apr-16 11:30N 59°45' E 021°22'0 0.0
2019-Apr-16 11:00N 59°45' E 021°22'0 0.0
2019-Apr-16 10:30N 59°45' E 021°22'0 0.0
2019-Apr-16 10:00N 59°45' E 021°22'0 0.0
2019-Apr-16 09:30N 59°45' E 021°22'0 0.0
2019-Apr-16 09:00N 59°45' E 021°22'0 0.0
2019-Apr-16 08:30N 59°45' E 021°22'0 0.0
2019-Apr-16 08:00N 59°45' E 021°22'0 0.0
2019-Apr-16 07:30N 59°45' E 021°22'0 0.0
2019-Apr-16 07:00N 59°45' E 021°22'0 0.2
2019-Apr-16 06:30N 59°45' E 021°22'0 0.0
2019-Apr-16 06:00N 59°45' E 021°22'0 0.0
2019-Apr-16 05:30N 59°45' E 021°22'0 0.0
2019-Apr-16 05:00N 59°45' E 021°22'2 4.4
2019-Apr-16 04:31N 59°43' E 021°23'4 7.9
2019-Apr-16 04:00N 59°39' E 021°25'4 8.0
2019-Apr-16 03:30N 59°38' E 021°32'4 8.1
2019-Apr-16 03:00N 59°36' E 021°39'4 8.1
2019-Apr-16 02:30N 59°34' E 021°47'4 7.9
2019-Apr-16 02:00N 59°33' E 021°54'4 8.2
2019-Apr-16 01:30N 59°33' E 022°03'4 8.2
2019-Apr-16 00:58N 59°33' E 022°11'4 8.2
2019-Apr-16 00:30N 59°33' E 022°19'4 8.4
2019-Apr-16 00:00N 59°33' E 022°27'4 8.7
2019-Apr-15 23:30N 59°33' E 022°35'4 8.7
2019-Apr-15 23:00N 59°33' E 022°44'4 8.7
2019-Apr-15 22:30N 59°33' E 022°53'4 8.6
2019-Apr-15 22:00N 59°33' E 023°01'4 8.5
2019-Apr-15 21:30N 59°33' E 023°09'4 8.4
2019-Apr-15 21:00N 59°33' E 023°18'4 8.5
2019-Apr-15 20:30N 59°33' E 023°26'2 4.1
2019-Apr-15 20:00N 59°33' E 023°30'0 0.1
2019-Apr-15 19:30N 59°33' E 023°30'0 0.1
2019-Apr-15 19:00N 59°33' E 023°30'0 0.0
2019-Apr-15 18:30N 59°33' E 023°30'0 0.0
2019-Apr-15 18:00N 59°33' E 023°30'1 2.6
2019-Apr-15 17:30N 59°32' E 023°29'0 0.2
2019-Apr-15 17:00N 59°32' E 023°29'0 0.2
2019-Apr-15 16:30N 59°32' E 023°29'0 0.0
2019-Apr-15 16:00N 59°32' E 023°29'0 0.0
2019-Apr-15 15:30N 59°32' E 023°29'5 9.0
2019-Apr-15 15:00N 59°34' E 023°37'612.7
2019-Apr-15 14:30N 59°38' E 023°47'612.7
2019-Apr-15 14:00N 59°41' E 023°58'612.5
2019-Apr-15 13:30N 59°44' E 024°09'612.5
2019-Apr-15 13:00N 59°47' E 024°19'612.6
2019-Apr-15 12:30N 59°51' E 024°30'612.5
2019-Apr-15 12:00N 59°54' E 024°40'612.6
2019-Apr-15 11:30N 59°58' E 024°50'612.3
2019-Apr-15 11:00N 60°03' E 024°57'1 2.4
2019-Apr-15 10:30N 60°04' E 024°59'0 0.0
2019-Apr-15 10:00N 60°04' E 024°59'3 6.7
2019-Apr-15 09:30N 60°06' E 024°54'3 6.3
2019-Apr-15 09:00N 60°10' E 024°54'0 0.0
2019-Apr-15 08:30N 60°10' E 024°54'0 0.0
2019-Apr-15 08:00N 60°10' E 024°54'0 0.0
2019-Apr-15 07:30N 60°10' E 024°54'0 0.0
2019-Apr-15 07:00N 60°10' E 024°54'0 0.0
2019-Apr-15 06:30N 60°10' E 024°54'0 0.0
2019-Apr-15 06:00N 60°10' E 024°54'0 0.0
2019-Apr-15 05:30N 60°10' E 024°54'0 0.0
2019-Apr-15 05:00N 60°10' E 024°54'0 0.0
2019-Apr-15 04:30N 60°10' E 024°54'0 0.0
2019-Apr-15 03:57N 60°10' E 024°54'0 0.0
2019-Apr-15 03:27N 60°10' E 024°54'0 0.0
2019-Apr-15 03:00N 60°10' E 024°54'0 0.0
2019-Apr-15 02:30N 60°10' E 024°54'0 0.0
2019-Apr-15 01:57N 60°10' E 024°54'0 0.0
2019-Apr-15 01:30N 60°10' E 024°54'0 0.0
2019-Apr-15 00:57N 60°10' E 024°54'0 0.0
2019-Apr-15 00:30N 60°10' E 024°54'0 0.0
2019-Apr-15 00:00N 60°10' E 024°54'0 0.0
2019-Apr-14 23:30N 60°10' E 024°54'0 0.0
2019-Apr-14 23:00N 60°10' E 024°54'0 0.0
2019-Apr-14 22:30N 60°10' E 024°54'0 0.0
2019-Apr-14 22:00N 60°10' E 024°54'0 0.0
2019-Apr-14 21:30N 60°10' E 024°54'0 0.0
2019-Apr-14 21:00N 60°10' E 024°54'0 0.0
2019-Apr-14 20:30N 60°10' E 024°54'0 0.0
2019-Apr-14 20:00N 60°10' E 024°54'0 0.0
2019-Apr-14 19:30N 60°10' E 024°54'0 0.0
2019-Apr-14 19:00N 60°10' E 024°54'0 0.0
2019-Apr-14 18:30N 60°10' E 024°54'0 0.0
2019-Apr-14 18:00N 60°10' E 024°54'0 0.0
2019-Apr-14 17:30N 60°10' E 024°54'0 0.0
2019-Apr-14 17:00N 60°10' E 024°54'0 0.0
2019-Apr-14 16:30N 60°10' E 024°54'0 0.0
2019-Apr-14 16:00N 60°10' E 024°54'0 0.0
2019-Apr-14 15:30N 60°10' E 024°54'0 0.0
2019-Apr-14 15:00N 60°10' E 024°54'0 0.0
2019-Apr-14 14:30N 60°10' E 024°54'0 0.0
2019-Apr-14 14:00N 60°10' E 024°54'0 0.0
2019-Apr-14 13:30N 60°10' E 024°54'0 0.0
2019-Apr-14 13:00N 60°10' E 024°54'0 0.0
2019-Apr-14 12:30N 60°10' E 024°54'0 0.0
2019-Apr-14 12:00N 60°10' E 024°54'0 0.0
2019-Apr-14 11:30N 60°10' E 024°54'0 0.0
2019-Apr-14 11:00N 60°10' E 024°54'0 0.0
2019-Apr-14 10:30N 60°10' E 024°54'0 0.0
2019-Apr-14 10:00N 60°10' E 024°54'0 0.0
2019-Apr-14 09:30N 60°10' E 024°54'0 0.0
2019-Apr-14 09:00N 60°10' E 024°54'0 0.0
2019-Apr-14 08:30N 60°10' E 024°54'0 0.0
2019-Apr-14 08:00N 60°10' E 024°54'0 0.0
2019-Apr-14 07:30N 60°10' E 024°54'0 0.0
2019-Apr-14 06:57N 60°10' E 024°54'0 0.0
2019-Apr-14 06:30N 60°10' E 024°54'0 0.0
2019-Apr-14 06:00N 60°10' E 024°54'0 0.0
2019-Apr-14 05:30N 60°10' E 024°54'0 0.0
2019-Apr-14 04:59N 60°10' E 024°54'0 0.0
2019-Apr-14 04:30N 60°10' E 024°54'0 0.0
2019-Apr-14 04:00N 60°10' E 024°54'0 0.0
2019-Apr-14 03:30N 60°10' E 024°54'0 0.0
2019-Apr-14 03:00N 60°10' E 024°54'0 0.0
2019-Apr-14 02:29N 60°10' E 024°54'0 0.0
2019-Apr-14 02:00N 60°10' E 024°54'0 0.0
2019-Apr-14 01:30N 60°10' E 024°54'0 0.0
2019-Apr-14 01:00N 60°10' E 024°54'0 0.0
2019-Apr-14 00:30N 60°10' E 024°54'0 0.0
2019-Apr-14 00:00N 60°10' E 024°54'0 0.0
2019-Apr-13 23:30N 60°10' E 024°54'0 0.0
2019-Apr-13 23:00N 60°10' E 024°54'0 0.0
2019-Apr-13 22:30N 60°10' E 024°54'0 0.0
2019-Apr-13 22:00N 60°10' E 024°54'0 0.0
2019-Apr-13 21:29N 60°10' E 024°54'0 0.0
2019-Apr-13 21:00N 60°10' E 024°54'0 0.0
2019-Apr-13 20:29N 60°10' E 024°54'0 0.0
2019-Apr-13 20:00N 60°10' E 024°54'0 0.0
2019-Apr-13 19:29N 60°10' E 024°54'0 0.0
2019-Apr-13 19:00N 60°10' E 024°54'0 0.0
2019-Apr-13 18:29N 60°10' E 024°54'0 0.0
2019-Apr-13 17:59N 60°10' E 024°54'0 0.0
2019-Apr-13 17:29N 60°10' E 024°54'0 0.0
2019-Apr-13 17:00N 60°10' E 024°54'0 0.0
2019-Apr-13 16:29N 60°10' E 024°54'0 0.0
2019-Apr-13 15:59N 60°10' E 024°54'0 0.0
2019-Apr-13 15:29N 60°10' E 024°54'0 0.0
2019-Apr-13 14:59N 60°10' E 024°54'0 0.0
2019-Apr-13 14:29N 60°10' E 024°54'0 0.0
2019-Apr-13 13:59N 60°10' E 024°54'0 0.0
2019-Apr-13 13:29N 60°10' E 024°54'0 0.0
2019-Apr-13 12:59N 60°10' E 024°54'0 0.0
2019-Apr-13 12:29N 60°10' E 024°54'0 0.0
2019-Apr-13 11:59N 60°10' E 024°54'0 0.0
2019-Apr-13 11:29N 60°10' E 024°54'0 0.0
2019-Apr-13 10:59N 60°10' E 024°54'0 0.0
2019-Apr-13 10:29N 60°10' E 024°54'0 0.0
2019-Apr-13 09:59N 60°10' E 024°54'0 0.0
2019-Apr-13 09:29N 60°10' E 024°54'0 0.0
2019-Apr-13 08:59N 60°10' E 024°54'0 0.0
2019-Apr-13 08:29N 60°10' E 024°54'0 0.0
2019-Apr-13 07:59N 60°10' E 024°54'0 0.0
2019-Apr-13 07:30N 60°10' E 024°54'0 0.0
2019-Apr-13 06:59N 60°10' E 024°54'0 0.0
2019-Apr-13 06:29N 60°10' E 024°54'0 0.0
2019-Apr-13 05:59N 60°10' E 024°54'0 0.0
2019-Apr-13 05:29N 60°10' E 024°54'0 0.0
2019-Apr-13 04:59N 60°10' E 024°54'0 0.0
2019-Apr-13 04:29N 60°10' E 024°54'0 0.0
2019-Apr-13 03:59N 60°10' E 024°54'0 0.0
2019-Apr-13 03:29N 60°10' E 024°54'0 0.0
2019-Apr-13 02:59N 60°10' E 024°54'0 0.0
2019-Apr-13 02:29N 60°10' E 024°54'0 0.0
2019-Apr-13 01:59N 60°10' E 024°54'0 0.0
2019-Apr-13 01:29N 60°10' E 024°54'0 0.0
2019-Apr-13 00:59N 60°10' E 024°54'0 0.0
2019-Apr-13 00:29N 60°10' E 024°54'0 0.0
2019-Apr-12 23:59N 60°10' E 024°54'0 0.0
2019-Apr-12 23:29N 60°10' E 024°54'0 0.0
2019-Apr-12 22:59N 60°10' E 024°54'0 0.0
2019-Apr-12 22:29N 60°10' E 024°54'0 0.0
2019-Apr-12 21:59N 60°10' E 024°54'0 0.0
2019-Apr-12 21:29N 60°10' E 024°54'0 0.0
2019-Apr-12 20:59N 60°10' E 024°54'0 0.0
2019-Apr-12 20:29N 60°10' E 024°54'0 0.0
2019-Apr-12 19:59N 60°10' E 024°54'0 0.0
2019-Apr-12 19:29N 60°10' E 024°54'0 0.0
2019-Apr-12 18:59N 60°10' E 024°54'0 0.0
2019-Apr-12 18:29N 60°10' E 024°54'0 0.0
2019-Apr-12 17:59N 60°10' E 024°54'0 0.0
2019-Apr-12 17:29N 60°10' E 024°54'0 0.0
2019-Apr-12 16:59N 60°10' E 024°54'0 0.0
2019-Apr-12 16:29N 60°10' E 024°54'0 0.0
2019-Apr-12 15:59N 60°10' E 024°54'0 0.0
2019-Apr-12 15:29N 60°10' E 024°54'0 0.0
2019-Apr-12 14:59N 60°10' E 024°54'0 0.0
2019-Apr-12 14:29N 60°10' E 024°54'0 0.0
2019-Apr-12 13:59N 60°10' E 024°54'0 0.0
2019-Apr-12 13:29N 60°10' E 024°54'0 0.0
2019-Apr-12 12:59N 60°10' E 024°54'0 0.0
2019-Apr-12 12:29N 60°10' E 024°54'0 0.0
2019-Apr-12 11:59N 60°10' E 024°54'0 0.0
2019-Apr-12 11:29N 60°10' E 024°54'0 0.0
2019-Apr-12 10:59N 60°10' E 024°54'0 0.0
2019-Apr-12 10:29N 60°10' E 024°54'0 0.0
2019-Apr-12 09:59N 60°10' E 024°54'0 0.0
2019-Apr-12 09:29N 60°10' E 024°54'0 0.0
2019-Apr-12 08:59N 60°10' E 024°54'0 0.0
2019-Apr-12 08:29N 60°10' E 024°54'0 0.0
2019-Apr-12 07:59N 60°10' E 024°54'0 0.0
2019-Apr-12 07:29N 60°10' E 024°54'0 0.0
2019-Apr-12 06:59N 60°10' E 024°54'0 0.0
2019-Apr-12 06:26N 60°10' E 024°54'0 0.0
2019-Apr-12 05:59N 60°10' E 024°54'0 0.0
2019-Apr-12 05:30N 60°10' E 024°54'0 0.0
2019-Apr-12 05:00N 60°10' E 024°54'0 0.0
2019-Apr-12 04:30N 60°10' E 024°54'0 0.0
2019-Apr-12 04:00N 60°10' E 024°54'0 0.0
2019-Apr-12 03:30N 60°10' E 024°54'0 0.0
2019-Apr-12 03:00N 60°10' E 024°54'0 0.1
2019-Apr-12 02:30N 60°10' E 024°54'510.9
2019-Apr-12 02:00N 60°04' E 024°53'510.8
2019-Apr-12 01:30N 59°59' E 024°53'612.4
2019-Apr-12 01:00N 59°55' E 024°42'612.3
2019-Apr-12 00:30N 59°53' E 024°31'612.4
2019-Apr-12 00:00N 59°50' E 024°20'1112.2
2019-Apr-11 23:04N 59°46' E 023°59'112.0
2019-Apr-11 22:59N 59°46' E 023°57'612.0
2019-Apr-11 22:30N 59°44' E 023°46'611.8
2019-Apr-11 22:00N 59°42' E 023°35'611.9
2019-Apr-11 21:30N 59°41' E 023°23'611.9
2019-Apr-11 21:00N 59°39' E 023°12'611.9
2019-Apr-11 20:30N 59°38' E 023°01'611.9
2019-Apr-11 20:00N 59°36' E 022°49'611.8
2019-Apr-11 19:30N 59°35' E 022°38'611.9
2019-Apr-11 19:01N 59°33' E 022°27'612.1
2019-Apr-11 18:31N 59°30' E 022°17'2512.3
2019-Apr-11 16:27N 59°17' E 021°35'812.3
2019-Apr-11 15:51N 59°13' E 021°22'219 8.5
2019-Apr-10 14:05N 56°26' E 016°56'112.0
2019-Apr-10 14:00N 56°25' E 016°55'612.1
2019-Apr-10 13:30N 56°20' E 016°50'612.1
2019-Apr-10 13:00N 56°15' E 016°44'611.3
2019-Apr-10 12:30N 56°10' E 016°39'1 1.3
2019-Apr-10 12:00N 56°10' E 016°38'612.1
2019-Apr-10 11:30N 56°06' E 016°29'5 9.7
2019-Apr-10 11:00N 56°08' E 016°20'612.6
2019-Apr-10 10:30N 56°14' E 016°17'612.6
2019-Apr-10 10:00N 56°20' E 016°14'3 5.5
2019-Apr-10 09:30N 56°22' E 016°12'0 0.0
2019-Apr-10 09:00N 56°22' E 016°12'0 0.0
2019-Apr-10 08:30N 56°22' E 016°12'2 4.9
2019-Apr-10 08:00N 56°20' E 016°11'612.2
2019-Apr-10 07:30N 56°14' E 016°08'612.0
2019-Apr-10 07:00N 56°09' E 016°03'612.2
2019-Apr-10 06:30N 56°04' E 015°57'612.4
2019-Apr-10 06:00N 55°58' E 015°51'611.9
2019-Apr-10 05:30N 55°54' E 015°43'612.3
2019-Apr-10 05:00N 55°51' E 015°34'612.4
2019-Apr-10 04:30N 55°48' E 015°24'612.3
2019-Apr-10 04:00N 55°45' E 015°15'612.5
2019-Apr-10 03:30N 55°42' E 015°05'612.6
2019-Apr-10 03:00N 55°38' E 014°56'2 4.8
2019-Apr-10 02:30N 55°37' E 014°52'3 4.4
2019-Apr-10 01:55N 55°35' E 014°49'512.6
2019-Apr-10 01:29N 55°32' E 014°41'5010.7
2019-Apr-09 20:47N 55°17' E 013°17'412.4
2019-Apr-09 20:29N 55°16' E 013°10'612.5
2019-Apr-09 19:58N 55°16' E 012°59'611.8
2019-Apr-09 19:26N 55°16' E 012°48'512.1
2019-Apr-09 19:00N 55°18' E 012°40'611.4
2019-Apr-09 18:30N 55°24' E 012°40'612.2
2019-Apr-09 18:00N 55°30' E 012°41'611.5
2019-Apr-09 17:30N 55°35' E 012°42'611.4
2019-Apr-09 17:00N 55°41' E 012°41'612.0
2019-Apr-09 16:30N 55°47' E 012°41'612.0
2019-Apr-09 16:00N 55°53' E 012°39'611.8
2019-Apr-09 15:31N 55°59' E 012°40'611.1
2019-Apr-09 15:00N 56°04' E 012°37'510.4
2019-Apr-09 14:29N 56°08' E 012°30'65 9.6
2019-Apr-09 07:45N 57°09' E 011°54'312.2
2019-Apr-09 07:30N 57°12' E 011°52'612.1
2019-Apr-09 07:00N 57°18' E 011°49'612.1
2019-Apr-09 06:30N 57°24' E 011°46'612.3
2019-Apr-09 06:00N 57°30' E 011°42'612.1
2019-Apr-09 05:31N 57°36' E 011°40'0 0.5
2019-Apr-09 04:59N 57°36' E 011°40'2 4.3
2019-Apr-09 04:30N 57°37' E 011°37'612.0
2019-Apr-09 04:00N 57°41' E 011°30'612.5
2019-Apr-09 03:30N 57°47' E 011°24'612.4
2019-Apr-09 03:00N 57°52' E 011°18'0 0.3
2019-Apr-09 02:30N 57°52' E 011°18'1 1.8
2019-Apr-09 02:01N 57°53' E 011°17'612.2
2019-Apr-09 01:31N 57°59' E 011°14'612.0
2019-Apr-09 01:01N 58°04' E 011°11'611.6
2019-Apr-09 00:30N 58°10' E 011°07'611.7
2019-Apr-09 00:00N 58°16' E 011°04'510.0
2019-Apr-08 23:31N 58°20' E 011°02'0 0.0
2019-Apr-08 23:01N 58°20' E 011°02'2 4.1
2019-Apr-08 22:30N 58°19' E 010°58'1 2.0
2019-Apr-08 22:00N 58°19' E 010°56'3 6.4
2019-Apr-08 21:30N 58°18' E 010°51'  

Dump ship's entire track history